createdAt,value
2018-07-15T00:00:02.798Z,71.73
2018-07-15T00:01:55.750Z,71.55
2018-07-15T00:02:55.755Z,71.64
2018-07-15T00:04:48.708Z,71.35
2018-07-15T00:05:48.705Z,71.06
2018-07-15T00:07:41.635Z,71.55
2018-07-15T00:08:41.659Z,71.55
2018-07-15T00:10:34.609Z,71.35
2018-07-15T00:11:34.614Z,71.16
2018-07-15T00:13:27.544Z,71.25
2018-07-15T00:14:27.568Z,71.64
2018-07-15T00:16:20.516Z,71.64
2018-07-15T00:17:20.523Z,71.25
2018-07-15T00:19:13.449Z,71.98
2018-07-15T00:20:13.505Z,71.61
2018-07-15T00:22:06.429Z,72.37
2018-07-15T00:23:06.431Z,72.56
2018-07-15T00:24:59.361Z,72.56
2018-07-15T00:25:59.384Z,71.80
2018-07-15T00:27:52.339Z,71.98
2018-07-15T00:28:52.338Z,72.08
2018-07-15T00:30:45.285Z,71.98
2018-07-15T00:31:45.292Z,72.18
2018-07-15T00:33:38.220Z,72.28
2018-07-15T00:34:38.246Z,71.98
2018-07-15T00:36:31.197Z,72.47
2018-07-15T00:37:31.202Z,72.56
2018-07-15T00:39:24.129Z,71.98
2018-07-15T00:40:24.154Z,72.37
2018-07-15T00:42:17.106Z,72.28
2018-07-15T00:43:17.110Z,72.28
2018-07-15T00:45:10.037Z,72.28
2018-07-15T00:46:10.062Z,72.85
2018-07-15T00:48:03.013Z,73.43
2018-07-15T00:49:03.021Z,73.00
2018-07-15T00:50:56.149Z,73.20
2018-07-15T00:51:56.177Z,73.30
2018-07-15T00:53:49.641Z,74.16
2018-07-15T00:54:49.642Z,73.87
2018-07-15T00:56:42.593Z,74.26
2018-07-15T00:57:42.595Z,73.87
2018-07-15T00:59:36.037Z,74.44
2018-07-15T01:00:36.060Z,74.06
2018-07-15T01:02:29.011Z,74.16
2018-07-15T01:03:29.016Z,74.73
2018-07-15T01:05:22.459Z,74.93
2018-07-15T01:06:22.484Z,75.02
2018-07-15T01:08:15.431Z,74.93
2018-07-15T01:09:15.434Z,75.02
2018-07-15T01:11:08.368Z,75.89
2018-07-15T01:12:08.392Z,75.46
2018-07-15T01:14:01.338Z,75.46
2018-07-15T01:15:01.347Z,75.37
2018-07-15T01:16:54.306Z,75.46
2018-07-15T01:17:54.298Z,75.85
2018-07-15T01:19:47.231Z,75.95
2018-07-15T01:20:47.252Z,76.14
2018-07-15T01:22:40.203Z,76.04
2018-07-15T01:23:40.207Z,76.23
2018-07-15T01:25:33.135Z,76.71
2018-07-15T01:26:33.163Z,77.00
2018-07-15T01:28:26.112Z,77.58
2018-07-15T01:29:26.114Z,76.90
2018-07-15T01:31:19.575Z,77.25
2018-07-15T01:32:19.546Z,77.63
2018-07-15T01:34:12.529Z,77.25
2018-07-15T01:35:12.535Z,76.77
2018-07-15T01:37:05.465Z,78.11
2018-07-15T01:38:05.488Z,77.44
2018-07-15T01:39:58.948Z,77.15
2018-07-15T01:40:58.953Z,76.77
2018-07-15T01:42:51.905Z,76.77
2018-07-15T01:43:51.907Z,77.06
2018-07-15T01:45:44.840Z,77.15
2018-07-15T01:46:44.865Z,77.15
2018-07-15T01:48:37.812Z,77.06
2018-07-15T01:49:37.817Z,77.53
2018-07-15T01:51:30.752Z,77.15
2018-07-15T01:52:30.774Z,78.02
2018-07-15T01:54:23.721Z,77.82
2018-07-15T01:55:23.726Z,77.73
2018-07-15T01:57:16.681Z,77.53
2018-07-15T01:58:16.684Z,78.11
2018-07-15T02:00:10.142Z,78.02
2018-07-15T02:01:10.147Z,77.63
2018-07-15T02:03:03.095Z,77.63
2018-07-15T02:04:03.100Z,78.11
2018-07-15T02:05:56.033Z,77.82
2018-07-15T02:06:56.053Z,77.78
2018-07-15T02:08:49.002Z,77.82
2018-07-15T02:09:49.006Z,78.11
2018-07-15T02:11:41.952Z,77.78
2018-07-15T02:12:41.964Z,78.07
2018-07-15T02:14:34.915Z,77.88
2018-07-15T02:15:34.918Z,77.88
2018-07-15T02:17:27.861Z,77.88
2018-07-15T02:18:27.870Z,78.55
2018-07-15T02:20:20.821Z,78.17
2018-07-15T02:21:20.824Z,78.27
2018-07-15T02:23:13.756Z,78.93
2018-07-15T02:24:13.777Z,78.74
2018-07-15T02:26:06.731Z,79.22
2018-07-15T02:27:06.731Z,78.93
2018-07-15T02:29:00.194Z,79.41
2018-07-15T02:30:00.197Z,79.22
2018-07-15T02:31:53.134Z,79.22
2018-07-15T02:32:53.158Z,79.03
2018-07-15T02:34:46.104Z,78.93
2018-07-15T02:35:46.110Z,79.03
2018-07-15T02:37:39.051Z,79.03
2018-07-15T02:38:39.060Z,79.13
2018-07-15T02:40:32.011Z,79.13
2018-07-15T02:41:32.015Z,79.13
2018-07-15T02:43:24.946Z,79.22
2018-07-15T02:44:24.969Z,79.03
2018-07-15T02:46:17.921Z,79.51
2018-07-15T02:47:17.928Z,79.41
2018-07-15T02:49:11.367Z,79.22
2018-07-15T02:50:11.390Z,79.37
2018-07-15T02:52:04.342Z,79.08
2018-07-15T02:53:04.347Z,79.37
2018-07-15T02:54:57.292Z,79.37
2018-07-15T02:55:57.299Z,79.13
2018-07-15T02:57:51.767Z,79.41
2018-07-15T02:58:51.789Z,79.37
2018-07-15T03:00:44.739Z,79.37
2018-07-15T03:01:44.742Z,80.33
2018-07-15T03:03:37.673Z,80.14
2018-07-15T03:04:37.694Z,79.95
2018-07-15T03:06:30.652Z,80.24
2018-07-15T03:07:30.656Z,80.24
2018-07-15T03:09:24.097Z,80.04
2018-07-15T03:10:24.114Z,80.14
2018-07-15T03:12:17.066Z,80.33
2018-07-15T03:13:17.074Z,80.43
2018-07-15T03:15:10.042Z,80.24
2018-07-15T03:16:10.027Z,80.24
2018-07-15T03:18:02.957Z,80.62
2018-07-15T03:19:02.980Z,80.81
2018-07-15T03:20:56.442Z,80.43
2018-07-15T03:21:56.445Z,80.71
2018-07-15T03:23:49.380Z,80.81
2018-07-15T03:24:49.400Z,80.33
2018-07-15T03:26:42.351Z,80.81
2018-07-15T03:27:42.353Z,80.90
2018-07-15T03:29:35.283Z,80.90
2018-07-15T03:30:35.306Z,81.10
2018-07-15T03:32:28.259Z,80.81
2018-07-15T03:33:28.261Z,81.00
2018-07-15T03:35:21.709Z,80.90
2018-07-15T03:36:21.728Z,81.20
2018-07-15T03:38:14.681Z,80.81
2018-07-15T03:39:14.684Z,80.71
2018-07-15T03:41:07.640Z,80.52
2018-07-15T03:42:07.635Z,80.43
2018-07-15T03:44:00.592Z,80.33
2018-07-15T03:45:00.590Z,80.52
2018-07-15T03:46:53.593Z,80.52
2018-07-15T03:47:53.546Z,80.62
2018-07-15T03:49:46.990Z,80.04
2018-07-15T03:50:47.011Z,80.52
2018-07-15T03:52:39.965Z,80.52
2018-07-15T03:53:39.964Z,80.62
2018-07-15T03:55:32.921Z,80.66
2018-07-15T03:56:32.924Z,80.27
2018-07-15T03:58:26.395Z,79.36
2018-07-15T03:59:26.361Z,79.36
2018-07-15T04:01:20.853Z,77.48
2018-07-15T04:02:20.876Z,76.75
2018-07-15T04:04:13.810Z,74.39
2018-07-15T04:05:13.819Z,74.19
2018-07-15T04:07:06.780Z,73.37
2018-07-15T04:08:06.783Z,73.50
2018-07-15T04:10:00.226Z,71.00
2018-07-15T04:11:00.250Z,71.61
2018-07-15T04:12:53.205Z,68.96
2018-07-15T04:13:53.204Z,67.74
2018-07-15T04:15:46.137Z,66.04
2018-07-15T04:16:46.161Z,65.46
2018-07-15T04:18:39.108Z,62.80
2018-07-15T04:19:39.114Z,62.32
2018-07-15T04:21:32.048Z,60.90
2018-07-15T04:22:32.074Z,61.00
2018-07-15T04:24:25.118Z,61.19
2018-07-15T04:25:25.126Z,60.52
2018-07-15T04:27:18.055Z,60.06
2018-07-15T04:28:18.159Z,59.10
2018-07-15T04:30:12.056Z,58.84
2018-07-15T04:31:12.063Z,58.45
2018-07-15T04:33:10.026Z,58.36
2018-07-15T04:34:10.034Z,57.81
2018-07-15T04:36:03.072Z,57.14
2018-07-15T04:37:03.088Z,56.84
2018-07-15T04:38:57.061Z,56.48
2018-07-15T04:39:57.074Z,55.90
2018-07-15T04:41:50.101Z,56.10
2018-07-15T04:42:50.130Z,55.62
2018-07-15T04:44:43.181Z,56.16
2018-07-15T04:45:43.185Z,56.48
2018-07-15T04:47:36.620Z,56.00
2018-07-15T04:48:36.651Z,55.26
2018-07-15T04:50:29.703Z,54.87
2018-07-15T04:51:29.706Z,54.22
2018-07-15T04:53:22.732Z,53.74
2018-07-15T04:54:22.784Z,53.47
2018-07-15T04:56:15.807Z,52.99
2018-07-15T04:57:15.819Z,53.47
2018-07-15T04:59:09.278Z,52.31
2018-07-15T05:00:09.287Z,53.02
2018-07-15T05:02:02.415Z,52.27
2018-07-15T05:03:02.370Z,50.45
2018-07-15T05:04:55.387Z,50.19
2018-07-15T05:05:55.399Z,49.54
2018-07-15T05:07:49.867Z,47.60
2018-07-15T05:08:49.890Z,47.13
2018-07-15T05:10:42.941Z,47.03
2018-07-15T05:11:42.954Z,46.26
2018-07-15T05:13:35.986Z,46.21
2018-07-15T05:14:36.007Z,45.72
2018-07-15T05:16:29.459Z,45.34
2018-07-15T05:17:29.469Z,45.04
2018-07-15T05:19:22.497Z,44.78
2018-07-15T05:20:22.528Z,45.07
2018-07-15T05:22:15.573Z,43.46
2018-07-15T05:23:15.584Z,43.07
2018-07-15T05:25:08.630Z,42.31
2018-07-15T05:26:08.644Z,42.80
2018-07-15T05:28:01.669Z,42.80
2018-07-15T05:29:01.705Z,42.04
2018-07-15T05:30:54.742Z,42.11
2018-07-15T05:31:54.758Z,42.41
2018-07-15T05:33:49.223Z,42.97
2018-07-15T05:34:49.277Z,43.15
2018-07-15T05:36:42.290Z,43.09
2018-07-15T05:37:42.301Z,42.31
2018-07-15T05:39:35.328Z,41.73
2018-07-15T05:40:35.359Z,41.93
2018-07-15T05:42:28.403Z,42.29
2018-07-15T05:43:28.424Z,42.10
2018-07-15T05:45:21.972Z,42.39
2018-07-15T05:46:21.987Z,42.19
2018-07-15T05:48:15.010Z,42.76
2018-07-15T05:49:15.044Z,42.76
2018-07-15T05:51:08.129Z,44.17
2018-07-15T05:52:08.098Z,44.37
2018-07-15T05:54:01.579Z,45.04
2018-07-15T05:55:01.574Z,45.24
2018-07-15T05:56:54.608Z,44.71
2018-07-15T05:57:54.632Z,45.78
2018-07-15T05:59:47.648Z,46.14
2018-07-15T06:00:47.681Z,47.02
2018-07-15T06:02:40.723Z,47.03
2018-07-15T06:03:40.737Z,46.79
2018-07-15T06:05:33.776Z,44.85
2018-07-15T06:06:33.791Z,44.85
2018-07-15T06:08:26.851Z,45.78
2018-07-15T06:09:26.848Z,46.36
2018-07-15T06:11:20.400Z,46.38
2018-07-15T06:12:20.417Z,46.01
2018-07-15T06:14:13.521Z,45.24
2018-07-15T06:15:13.477Z,44.87
2018-07-15T06:17:06.524Z,44.89
2018-07-15T06:18:06.573Z,43.44
2018-07-15T06:19:59.553Z,43.15
2018-07-15T06:20:59.588Z,43.15
2018-07-15T06:22:55.602Z,43.44
2018-07-15T06:23:55.614Z,43.92
2018-07-15T06:25:48.637Z,44.38
2018-07-15T06:26:48.671Z,45.04
2018-07-15T06:28:41.713Z,44.65
2018-07-15T06:29:41.730Z,44.75
2018-07-15T06:31:34.771Z,44.85
2018-07-15T06:32:34.783Z,45.70
2018-07-15T06:34:27.807Z,45.51
2018-07-15T06:35:27.842Z,46.09
2018-07-15T06:37:21.802Z,45.61
2018-07-15T06:38:21.818Z,45.12
2018-07-15T06:40:14.840Z,45.24
2018-07-15T06:41:14.874Z,45.34
2018-07-15T06:43:07.918Z,45.04
2018-07-15T06:44:07.937Z,45.43
2018-07-15T06:46:01.023Z,44.75
2018-07-15T06:47:00.990Z,44.97
2018-07-15T06:48:54.029Z,45.07
2018-07-15T06:49:54.042Z,44.58
2018-07-15T06:51:47.074Z,44.78
2018-07-15T06:52:47.105Z,44.58
2018-07-15T06:54:40.653Z,44.46
2018-07-15T06:55:40.669Z,44.95
2018-07-15T06:57:33.709Z,44.65
2018-07-15T06:58:33.728Z,45.51
2018-07-15T07:00:27.261Z,45.62
2018-07-15T07:01:27.298Z,45.14
2018-07-15T07:03:20.337Z,45.07
2018-07-15T07:04:20.354Z,44.95
2018-07-15T07:06:13.383Z,44.17
2018-07-15T07:07:13.460Z,44.65
2018-07-15T07:09:06.450Z,44.48
2018-07-15T07:10:06.466Z,44.46
2018-07-15T07:11:59.492Z,44.56
2018-07-15T07:12:59.527Z,44.27
2018-07-15T07:14:54.000Z,44.46
2018-07-15T07:15:54.024Z,44.56
2018-07-15T07:17:47.060Z,45.62
2018-07-15T07:18:47.083Z,45.53
2018-07-15T07:20:41.627Z,44.65
2018-07-15T07:21:41.562Z,42.93
2018-07-15T07:23:34.603Z,42.35
2018-07-15T07:24:34.618Z,42.76
2018-07-15T07:26:30.561Z,41.98
2018-07-15T07:27:30.594Z,42.18
2018-07-15T07:29:23.588Z,42.25
2018-07-15T07:30:23.603Z,43.41
2018-07-15T07:32:16.555Z,43.59
2018-07-15T07:33:16.586Z,43.78
2018-07-15T07:35:09.588Z,44.15
2018-07-15T07:36:09.602Z,45.41
2018-07-15T07:38:02.626Z,45.29
2018-07-15T07:39:02.668Z,44.81
2018-07-15T07:40:55.704Z,45.07
2018-07-15T07:41:55.714Z,44.49
2018-07-15T07:43:48.759Z,44.59
2018-07-15T07:44:48.776Z,45.34
2018-07-15T07:46:41.793Z,46.97
2018-07-15T07:47:41.825Z,45.90
2018-07-15T07:49:36.304Z,45.61
2018-07-15T07:50:36.319Z,46.08
2018-07-15T07:52:29.341Z,47.11
2018-07-15T07:53:29.370Z,46.92
2018-07-15T07:55:22.419Z,47.50
2018-07-15T07:56:22.430Z,47.31
2018-07-15T07:58:15.455Z,45.64
2018-07-15T07:59:15.485Z,45.83
2018-07-15T08:01:08.970Z,47.84
2018-07-15T08:02:08.540Z,48.52
2018-07-15T08:04:01.584Z,47.58
2018-07-15T08:05:01.597Z,46.90
2018-07-15T08:06:54.621Z,45.33
2018-07-15T08:07:54.654Z,46.97
2018-07-15T08:09:48.593Z,45.64
2018-07-15T08:10:48.604Z,46.20
2018-07-15T08:12:41.563Z,46.61
2018-07-15T08:13:41.586Z,45.42
2018-07-15T08:15:34.631Z,47.65
2018-07-15T08:16:34.639Z,46.78
2018-07-15T08:18:27.666Z,46.97
2018-07-15T08:19:27.697Z,46.20
2018-07-15T08:21:20.745Z,44.26
2018-07-15T08:22:20.754Z,44.84
2018-07-15T08:24:13.788Z,47.84
2018-07-15T08:25:13.812Z,48.42
2018-07-15T08:27:06.856Z,45.62
2018-07-15T08:28:06.935Z,45.16
2018-07-15T08:29:59.912Z,47.58
2018-07-15T08:30:59.921Z,47.00
2018-07-15T08:32:52.949Z,43.51
2018-07-15T08:33:52.977Z,43.99
2018-07-15T08:35:45.919Z,44.40
2018-07-15T08:36:45.927Z,42.66
2018-07-15T08:38:38.856Z,43.32
2018-07-15T08:39:38.884Z,44.70
2018-07-15T08:41:31.935Z,42.07
2018-07-15T08:42:31.948Z,42.28
2018-07-15T08:44:25.045Z,43.13
2018-07-15T08:45:25.000Z,43.82
2018-07-15T08:47:18.047Z,44.40
2018-07-15T08:48:18.059Z,44.29
2018-07-15T08:50:11.093Z,45.47
2018-07-15T08:51:11.119Z,46.73
2018-07-15T08:53:04.180Z,47.86
2018-07-15T08:54:04.176Z,47.58
2018-07-15T08:55:57.219Z,47.89
2018-07-15T08:56:57.228Z,47.50
2018-07-15T08:58:50.266Z,47.69
2018-07-15T08:59:50.284Z,49.05
2018-07-15T09:01:43.333Z,47.50
2018-07-15T09:02:43.346Z,47.11
2018-07-15T09:04:36.369Z,48.47
2018-07-15T09:05:36.451Z,46.92
2018-07-15T09:07:30.012Z,47.02
2018-07-15T09:08:29.968Z,47.50
2018-07-15T09:10:22.998Z,47.50
2018-07-15T09:11:23.021Z,47.50
2018-07-15T09:13:17.502Z,46.08
2018-07-15T09:14:17.511Z,46.26
2018-07-15T09:16:10.606Z,47.02
2018-07-15T09:17:10.569Z,46.92
2018-07-15T09:19:03.615Z,45.86
2018-07-15T09:20:03.625Z,45.76
2018-07-15T09:21:56.728Z,45.66
2018-07-15T09:22:56.695Z,45.37
2018-07-15T09:24:49.716Z,46.17
2018-07-15T09:25:49.735Z,45.49
2018-07-15T09:27:42.802Z,45.01
2018-07-15T09:28:42.792Z,45.78
2018-07-15T09:30:35.823Z,46.36
2018-07-15T09:31:35.848Z,47.14
2018-07-15T09:33:28.897Z,44.40
2018-07-15T09:34:28.906Z,45.68
2018-07-15T09:36:21.935Z,45.59
2018-07-15T09:37:21.964Z,45.49
2018-07-15T09:39:15.008Z,44.81
2018-07-15T09:40:15.017Z,44.62
2018-07-15T09:42:08.047Z,44.72
2018-07-15T09:43:08.076Z,44.53
2018-07-15T09:45:02.046Z,44.72
2018-07-15T09:46:02.052Z,44.62
2018-07-15T09:47:55.099Z,44.43
2018-07-15T09:48:55.111Z,45.10
2018-07-15T09:50:48.143Z,44.33
2018-07-15T09:51:48.166Z,44.33
2018-07-15T09:53:41.214Z,45.30
2018-07-15T09:54:41.223Z,44.12
2018-07-15T09:56:44.150Z,43.63
2018-07-15T09:57:44.176Z,44.12
2018-07-15T09:59:37.123Z,43.82
2018-07-15T10:00:37.140Z,43.73
2018-07-15T10:02:30.314Z,44.91
2018-07-15T10:03:30.254Z,44.72
2018-07-15T10:05:23.242Z,45.42
2018-07-15T10:06:23.201Z,44.84
2018-07-15T10:08:16.143Z,44.74
2018-07-15T10:09:16.152Z,44.64
2018-07-15T10:11:09.120Z,44.76
2018-07-15T10:12:09.124Z,44.35
2018-07-15T10:14:02.065Z,44.26
2018-07-15T10:15:02.073Z,44.84
2018-07-15T10:16:55.007Z,45.05
2018-07-15T10:17:55.031Z,44.47
2018-07-15T10:19:47.970Z,44.26
2018-07-15T10:20:47.978Z,43.31
2018-07-15T10:22:40.915Z,43.96
2018-07-15T10:23:40.938Z,45.13
2018-07-15T10:25:34.968Z,44.64
2018-07-15T10:26:33.951Z,44.45
2018-07-15T10:28:26.851Z,44.45
2018-07-15T10:29:26.846Z,43.96
2018-07-15T10:31:19.795Z,43.29
2018-07-15T10:32:19.798Z,44.54
2018-07-15T10:34:12.744Z,44.06
2018-07-15T10:35:12.751Z,45.13
2018-07-15T10:37:05.675Z,44.84
2018-07-15T10:38:05.702Z,44.54
2018-07-15T10:39:58.678Z,41.55
2018-07-15T10:40:58.653Z,41.55
2018-07-15T10:42:51.577Z,42.22
2018-07-15T10:43:51.604Z,42.03
2018-07-15T10:45:44.545Z,42.03
2018-07-15T10:46:44.555Z,41.64
2018-07-15T10:48:37.501Z,43.29
2018-07-15T10:49:37.527Z,42.80
2018-07-15T10:51:30.490Z,41.86
2018-07-15T10:52:30.482Z,42.34
2018-07-15T10:54:23.429Z,41.76
2018-07-15T10:55:23.435Z,42.14
2018-07-15T10:57:16.362Z,41.47
2018-07-15T10:58:16.389Z,42.24
2018-07-15T11:00:09.368Z,40.50
2018-07-15T11:01:09.348Z,40.59
2018-07-15T11:03:02.266Z,39.14
2018-07-15T11:04:02.295Z,36.72
2018-07-15T11:05:55.259Z,35.85
2018-07-15T11:06:55.251Z,36.51
2018-07-15T11:08:48.193Z,37.69
2018-07-15T11:09:48.202Z,37.49
2018-07-15T11:11:41.166Z,35.94
2018-07-15T11:12:41.157Z,36.52
2018-07-15T11:14:34.117Z,37.11
2018-07-15T11:15:34.114Z,38.27
2018-07-15T11:17:27.049Z,37.59
2018-07-15T11:18:27.065Z,37.88
2018-07-15T11:20:20.012Z,38.78
2018-07-15T11:21:20.058Z,37.51
2018-07-15T11:23:12.983Z,38.29
2018-07-15T11:24:12.990Z,38.29
2018-07-15T11:26:05.979Z,37.81
2018-07-15T11:27:05.941Z,37.61
2018-07-15T11:28:58.866Z,37.90
2018-07-15T11:29:58.894Z,38.68
2018-07-15T11:31:51.844Z,38.78
2018-07-15T11:32:51.847Z,39.36
2018-07-15T11:34:44.784Z,39.65
2018-07-15T11:35:44.793Z,40.42
2018-07-15T11:37:37.713Z,38.09
2018-07-15T11:38:37.742Z,37.41
2018-07-15T11:40:30.703Z,37.41
2018-07-15T11:41:30.698Z,37.41
2018-07-15T11:43:23.623Z,36.56
2018-07-15T11:44:23.655Z,35.77
2018-07-15T11:46:16.594Z,37.53
2018-07-15T11:47:16.600Z,37.05
2018-07-15T11:49:09.526Z,39.36
2018-07-15T11:50:09.553Z,39.08
2018-07-15T11:52:02.497Z,37.82
2018-07-15T11:53:02.509Z,36.76
2018-07-15T11:54:55.457Z,38.02
2018-07-15T11:55:55.463Z,36.46
2018-07-15T11:57:48.470Z,36.85
2018-07-15T11:58:48.424Z,37.43
2018-07-15T12:00:41.370Z,36.08
2018-07-15T12:01:41.414Z,36.36
2018-07-15T12:03:34.321Z,35.49
2018-07-15T12:04:34.332Z,34.91
2018-07-15T12:06:27.277Z,35.71
2018-07-15T12:07:27.322Z,35.51
2018-07-15T12:09:20.207Z,35.11
2018-07-15T12:10:20.235Z,34.04
2018-07-15T12:12:13.329Z,32.97
2018-07-15T12:13:13.245Z,33.36
2018-07-15T12:15:06.119Z,32.78
2018-07-15T12:16:06.144Z,32.78
2018-07-15T12:17:59.089Z,32.87
2018-07-15T12:18:59.095Z,33.07
2018-07-15T12:20:52.043Z,34.81
2018-07-15T12:21:52.048Z,35.49
2018-07-15T12:23:44.973Z,35.90
2018-07-15T12:24:45.012Z,34.16
2018-07-15T12:26:37.955Z,35.13
2018-07-15T12:27:37.963Z,35.90
2018-07-15T12:29:30.892Z,36.00
2018-07-15T12:30:30.918Z,34.93
2018-07-15T12:32:23.867Z,34.35
2018-07-15T12:33:23.870Z,35.51
2018-07-15T12:35:16.794Z,34.54
2018-07-15T12:36:16.822Z,34.35
2018-07-15T12:38:09.766Z,35.49
2018-07-15T12:39:09.774Z,35.71
2018-07-15T12:41:02.718Z,35.41
2018-07-15T12:42:02.726Z,34.25
2018-07-15T12:43:55.654Z,36.48
2018-07-15T12:44:55.681Z,34.83
2018-07-15T12:46:48.640Z,35.33
2018-07-15T12:47:48.637Z,35.43
2018-07-15T12:49:41.561Z,35.33
2018-07-15T12:50:41.589Z,35.82
2018-07-15T12:52:34.549Z,35.53
2018-07-15T12:53:34.543Z,35.33
2018-07-15T12:55:27.467Z,35.24
2018-07-15T12:56:27.496Z,35.63
2018-07-15T12:58:20.453Z,34.66
2018-07-15T12:59:20.455Z,35.43
2018-07-15T13:01:13.417Z,35.33
2018-07-15T13:02:13.408Z,35.45
2018-07-15T13:04:06.338Z,33.39
2018-07-15T13:05:06.368Z,32.71
2018-07-15T13:06:59.343Z,33.11
2018-07-15T13:07:59.317Z,34.17
2018-07-15T13:09:52.268Z,35.43
2018-07-15T13:10:52.296Z,35.92
2018-07-15T13:12:45.231Z,35.33
2018-07-15T13:13:45.224Z,36.02
2018-07-15T13:15:38.150Z,36.89
2018-07-15T13:16:38.181Z,36.60
2018-07-15T13:18:31.164Z,37.47
2018-07-15T13:19:31.132Z,37.30
2018-07-15T13:21:24.061Z,38.07
2018-07-15T13:22:24.088Z,36.32
2018-07-15T13:24:17.037Z,34.58
2018-07-15T13:25:17.043Z,34.67
2018-07-15T13:27:09.970Z,34.38
2018-07-15T13:28:10.000Z,34.77
2018-07-15T13:30:02.943Z,34.40
2018-07-15T13:31:02.952Z,34.59
2018-07-15T13:32:55.902Z,34.59
2018-07-15T13:33:55.903Z,34.79
2018-07-15T13:35:48.827Z,33.33
2018-07-15T13:36:48.856Z,33.23
2018-07-15T13:38:41.800Z,33.81
2018-07-15T13:39:41.807Z,34.50
2018-07-15T13:41:34.778Z,35.37
2018-07-15T13:42:34.769Z,35.86
2018-07-15T13:44:27.722Z,35.57
2018-07-15T13:45:27.724Z,35.66
2018-07-15T13:47:20.649Z,34.52
2018-07-15T13:48:20.677Z,34.69
2018-07-15T13:50:13.619Z,34.40
2018-07-15T13:51:13.633Z,35.17
2018-07-15T13:53:06.573Z,34.67
2018-07-15T13:54:06.583Z,35.16
2018-07-15T13:55:59.519Z,35.25
2018-07-15T13:56:59.538Z,35.55
2018-07-15T13:58:52.482Z,35.08
2018-07-15T13:59:52.493Z,35.08
2018-07-15T14:01:45.415Z,34.98
2018-07-15T14:02:45.441Z,35.96
2018-07-15T14:04:38.385Z,35.27
2018-07-15T14:05:38.393Z,34.28
2018-07-15T14:07:31.336Z,34.67
2018-07-15T14:08:31.355Z,35.64
2018-07-15T14:10:24.290Z,36.13
2018-07-15T14:11:24.300Z,35.84
2018-07-15T14:13:17.226Z,35.35
2018-07-15T14:14:17.256Z,34.97
2018-07-15T14:16:10.204Z,35.06
2018-07-15T14:17:10.208Z,34.59
2018-07-15T14:19:03.156Z,33.43
2018-07-15T14:20:03.163Z,33.64
2018-07-15T14:21:56.102Z,34.59
2018-07-15T14:22:56.168Z,35.00
2018-07-15T14:24:49.128Z,35.10
2018-07-15T14:25:49.110Z,34.70
2018-07-15T14:27:42.034Z,33.83
2018-07-15T14:28:42.063Z,33.93
2018-07-15T14:30:35.005Z,34.32
2018-07-15T14:31:35.014Z,34.70
2018-07-15T14:33:27.937Z,35.19
2018-07-15T14:34:27.966Z,34.32
2018-07-15T14:36:20.912Z,34.32
2018-07-15T14:37:20.923Z,33.83
2018-07-15T14:39:13.861Z,33.06
2018-07-15T14:40:13.870Z,33.73
2018-07-15T14:42:06.795Z,33.73
2018-07-15T14:43:06.828Z,33.54
2018-07-15T14:44:59.775Z,34.59
2018-07-15T14:45:59.780Z,33.81
2018-07-15T14:47:52.702Z,33.73
2018-07-15T14:48:52.731Z,34.61
2018-07-15T14:50:45.675Z,34.59
2018-07-15T14:51:45.686Z,34.40
2018-07-15T14:53:38.611Z,34.11
2018-07-15T14:54:38.636Z,35.08
2018-07-15T14:56:31.581Z,34.50
2018-07-15T14:57:31.596Z,34.69
2018-07-15T14:59:24.509Z,34.90
2018-07-15T15:00:24.541Z,34.80
2018-07-15T15:02:17.488Z,32.94
2018-07-15T15:03:17.491Z,33.53
2018-07-15T15:05:10.439Z,33.91
2018-07-15T15:06:10.444Z,33.81
2018-07-15T15:08:03.372Z,33.91
2018-07-15T15:09:03.403Z,33.23
2018-07-15T15:10:56.348Z,33.61
2018-07-15T15:11:56.352Z,34.28
2018-07-15T15:13:49.278Z,34.79
2018-07-15T15:14:49.306Z,35.47
2018-07-15T15:16:42.257Z,35.17
2018-07-15T15:17:42.262Z,35.97
2018-07-15T15:19:35.185Z,35.29
2018-07-15T15:20:35.214Z,33.91
2018-07-15T15:22:28.213Z,34.42
2018-07-15T15:23:28.172Z,34.40
2018-07-15T15:25:21.096Z,35.08
2018-07-15T15:26:21.130Z,34.90
2018-07-15T15:28:14.068Z,35.17
2018-07-15T15:29:14.085Z,35.37
2018-07-15T15:31:07.031Z,34.03
2018-07-15T15:32:07.036Z,33.83
2018-07-15T15:33:59.958Z,34.69
2018-07-15T15:34:59.988Z,34.11
2018-07-15T15:36:52.928Z,34.30
2018-07-15T15:37:52.939Z,35.39
2018-07-15T15:39:45.861Z,34.42
2018-07-15T15:40:45.907Z,35.29
2018-07-15T15:42:38.835Z,33.73
2018-07-15T15:43:38.844Z,33.25
2018-07-15T15:45:31.772Z,32.96
2018-07-15T15:46:31.799Z,32.96
2018-07-15T15:48:24.929Z,33.72
2018-07-15T15:49:24.936Z,34.30
2018-07-15T15:51:17.869Z,33.81
2018-07-15T15:52:17.895Z,34.69
2018-07-15T15:54:11.054Z,35.66
2018-07-15T15:55:11.047Z,35.76
2018-07-15T15:57:03.998Z,34.98
2018-07-15T15:58:04.047Z,34.30
2018-07-15T15:59:56.927Z,34.12
2018-07-15T16:00:56.955Z,33.93
2018-07-15T16:02:49.902Z,34.59
2018-07-15T16:03:49.908Z,33.81
2018-07-15T16:05:42.840Z,33.43
2018-07-15T16:06:42.867Z,33.04
2018-07-15T16:08:36.020Z,33.72
2018-07-15T16:09:36.029Z,34.59
2018-07-15T16:11:28.955Z,33.91
2018-07-15T16:12:28.984Z,33.81
2018-07-15T16:14:21.926Z,34.50
2018-07-15T16:15:21.936Z,34.50
2018-07-15T16:17:14.879Z,33.73
2018-07-15T16:18:14.888Z,33.81
2018-07-15T16:20:07.814Z,33.14
2018-07-15T16:21:07.839Z,34.30
2018-07-15T16:23:00.992Z,34.40
2018-07-15T16:24:01.000Z,34.11
2018-07-15T16:25:53.923Z,34.40
2018-07-15T16:26:53.952Z,34.20
2018-07-15T16:28:46.909Z,34.01
2018-07-15T16:29:46.915Z,34.87
2018-07-15T16:31:39.839Z,34.67
2018-07-15T16:32:39.864Z,34.67
2018-07-15T16:34:32.811Z,34.87
2018-07-15T16:35:32.819Z,35.25
2018-07-15T16:37:25.752Z,36.04
2018-07-15T16:38:25.772Z,35.16
2018-07-15T16:40:18.714Z,34.97
2018-07-15T16:41:18.723Z,35.45
2018-07-15T16:43:11.688Z,34.97
2018-07-15T16:44:11.676Z,35.45
2018-07-15T16:46:04.607Z,35.45
2018-07-15T16:47:04.628Z,35.63
2018-07-15T16:48:57.573Z,35.92
2018-07-15T16:49:57.651Z,35.94
2018-07-15T16:51:50.517Z,36.22
2018-07-15T16:52:50.535Z,37.20
2018-07-15T16:54:43.494Z,36.52
2018-07-15T16:55:43.519Z,36.13
2018-07-15T16:57:37.420Z,35.94
2018-07-15T16:58:37.453Z,35.84
2018-07-15T17:00:30.406Z,35.94
2018-07-15T17:01:30.421Z,36.04
2018-07-15T17:03:23.340Z,35.45
2018-07-15T17:04:23.369Z,35.64
2018-07-15T17:06:16.321Z,36.04
2018-07-15T17:07:16.332Z,35.45
2018-07-15T17:09:09.273Z,35.74
2018-07-15T17:10:09.281Z,35.25
2018-07-15T17:12:02.218Z,35.64
2018-07-15T17:13:02.240Z,35.94
2018-07-15T17:14:55.184Z,35.35
2018-07-15T17:15:55.194Z,35.06
2018-07-15T17:17:48.118Z,35.45
2018-07-15T17:18:48.148Z,35.55
2018-07-15T17:20:41.194Z,35.35
2018-07-15T17:21:41.099Z,35.35
2018-07-15T17:23:34.025Z,35.16
2018-07-15T17:24:34.052Z,35.06
2018-07-15T17:26:27.027Z,35.55
2018-07-15T17:27:27.004Z,36.13
2018-07-15T17:29:19.972Z,36.91
2018-07-15T17:30:19.957Z,36.81
2018-07-15T17:32:12.890Z,36.61
2018-07-15T17:33:12.913Z,36.42
2018-07-15T17:35:05.876Z,36.81
2018-07-15T17:36:05.891Z,36.71
2018-07-15T17:37:58.816Z,36.32
2018-07-15T17:38:58.839Z,37.20
2018-07-15T17:40:51.785Z,37.10
2018-07-15T17:41:51.793Z,37.01
2018-07-15T17:43:44.718Z,37.49
2018-07-15T17:44:44.745Z,36.61
2018-07-15T17:46:37.703Z,35.84
2018-07-15T17:47:37.700Z,36.21
2018-07-15T17:49:30.658Z,36.52
2018-07-15T17:50:30.650Z,36.11
2018-07-15T17:52:23.575Z,37.01
2018-07-15T17:53:23.607Z,37.01
2018-07-15T17:55:16.555Z,36.05
2018-07-15T17:56:16.568Z,35.86
2018-07-15T17:58:09.490Z,34.79
2018-07-15T17:59:09.520Z,34.80
2018-07-15T18:01:02.464Z,35.10
2018-07-15T18:02:02.474Z,35.49
2018-07-15T18:03:55.451Z,34.80
2018-07-15T18:04:55.460Z,34.22
2018-07-15T18:06:48.372Z,34.33
2018-07-15T18:07:48.381Z,34.14
2018-07-15T18:09:41.328Z,34.25
2018-07-15T18:10:41.387Z,34.64
2018-07-15T18:12:34.287Z,33.77
2018-07-15T18:13:34.293Z,34.17
2018-07-15T18:15:27.237Z,33.69
2018-07-15T18:16:27.246Z,33.29
2018-07-15T18:18:20.170Z,33.39
2018-07-15T18:19:20.202Z,32.91
2018-07-15T18:21:13.208Z,32.71
2018-07-15T18:22:13.220Z,33.01
2018-07-15T18:24:06.081Z,32.89
2018-07-15T18:25:06.113Z,33.09
2018-07-15T18:26:59.058Z,33.48
2018-07-15T18:27:59.069Z,34.25
2018-07-15T18:29:51.995Z,33.29
2018-07-15T18:30:52.024Z,33.78
2018-07-15T18:32:44.977Z,33.43
2018-07-15T18:33:44.979Z,32.73